CYYU

Details ICAO CYYU (YYU)
Name KAPUSKASING
Region Canada
Timezone America/Toronto (UTC-5.0)
Plans Departing 2
Arriving 0
Stats Elevation 743 ft / 226 m (AMSL)
Location 49.414166° -82.467431°
Runways 2
Magnetic Variation 9.931° W
Sunrise 2017-12-15 13:20:46 UTC / 2017-12-15 08:20:46 Local
Sunset 2017-12-15 21:32:17 UTC / 2017-12-15 16:32:17 Local
Advertisement - Login to hide

Runways

ID Width Length Bearing (true) Bearing (mag) Surface Threshold Offset Overrun Length
10 75 ft / 23 m 3,759 ft / 1,146 m 89.99° 99.92° Asphalt 200 ft / 61 m 0 ft / 0 m
17 100 ft / 30 m 5,542 ft / 1,689 m 156.13° 166.06° Asphalt 0 ft / 0 m 0 ft / 0 m
28 75 ft / 23 m 3,759 ft / 1,146 m 270.01° 279.94° Asphalt 0 ft / 0 m 0 ft / 0 m
35 100 ft / 30 m 5,542 ft / 1,689 m 336.14° 346.07° Asphalt 0 ft / 0 m 0 ft / 0 m

Map

Weather


0- 5 10 15 20 25 30 35+ Temperature / ° C

Clouds and Precipitation
Forecast for 2017-12-15 12:00 UTC. Updated an hour ago

Ground ~20,000 ft ~40,000 ft Winds

METAR

CYYU 151200Z VRB02KT 12SM -SN BKN074 M23/M25 A2978 RMK AC5 FROIN SLP114

TAF

TAF CYYU 150744Z 1508/1520 VRB03KT P6SM BKN040 TEMPO 1508/1514 5SM -SN BKN020 FM151400 36005KT 6SM -SN OVC020 TEMPO 1514/1520 3SM -SN OVC010 RMK NXT FCST BY 151400Z

Frequencies

Tower 122.20 MHz MF
Warning: Do not use this data for real-world aviation or navigation. No guarantee of current accuracy is given.